Lizella, Georgia
Current Conditions -  °F | °C
As of 3:53 AM on Tuesday 21 Oct 2014 (Local Time) from KMCN Reporting Station
Haze Haze  
Wind Chill: 10°   Ceiling: Unl
Heat Index: 10°   Visibility: 6mi
Dew Point: 10°   Wind: 3mph
Humidity: 100%   Direction: 260°W
Pressure: 29.99"   Gusts: NA
Location:  32.81°N, 83.82°W
Report Text: KMCN 210753Z AUTO 26003KT 6SM BR CLR 10/10 A2999 RMK AO2 SLP152 T01000100 TSNO
Loading
Personal Weather Stations






























Interactive Weather Map
Tropical Storm Tracking
New forecast layout! Learn more

10-Day Weather Forecast

Advertisements
Track Severe Weather on mobile